Terminal Aerodrome Forecast
Issued by NWS Chicago, IL

Home | Current Version | Previous Version | Graphics & Text | Print | Product List | Glossary On
Versions: 1 2 3 4 5 6 7 8 9 10 11 12 13 14 15 16 17 18 19 20 21 22 23 24 25
000
FTUS43 KLOT 261126
TAFRFD
TAF
KRFD 261126Z 2612/2712 20010KT P6SM VCSH BKN080
      TEMPO 2612/2614 28015G25KT 3SM TSRA SCT025 BKN050CB
     FM261500 20012KT P6SM SCT050 BKN250
     FM270100 17005KT P6SM BKN250 PROB30 2709/2712 5SM TSRA
      BKN050CB=

USA.gov is the U.S. government's official web portal to all federal, state and local government web resources and services.